sensor_id;sensor_type;location;lat;lon;timestamp;P1;durP1;ratioP1;P2;durP2;ratioP2
15693;SDS011;7947;48.834;9.132;2023-04-24T00:01:31;0.30;;;0.30;;
15693;SDS011;7947;48.834;9.132;2023-04-24T00:04:35;0.20;;;0.20;;
15693;SDS011;7947;48.834;9.132;2023-04-24T00:07:41;1.08;;;0.70;;
15693;SDS011;7947;48.834;9.132;2023-04-24T00:10:47;0.82;;;0.40;;
15693;SDS011;7947;48.834;9.132;2023-04-24T00:13:50;0.73;;;0.40;;
15693;SDS011;7947;48.834;9.132;2023-04-24T00:16:53;1.00;;;0.32;;
15693;SDS011;7947;48.834;9.132;2023-04-24T00:19:56;0.30;;;0.30;;
15693;SDS011;7947;48.834;9.132;2023-04-24T00:23:00;0.32;;;0.30;;
15693;SDS011;7947;48.834;9.132;2023-04-24T00:26:04;0.30;;;0.20;;
15693;SDS011;7947;48.834;9.132;2023-04-24T00:29:07;0.43;;;0.25;;
15693;SDS011;7947;48.834;9.132;2023-04-24T00:32:10;2.05;;;0.40;;
15693;SDS011;7947;48.834;9.132;2023-04-24T00:35:13;0.90;;;0.40;;
15693;SDS011;7947;48.834;9.132;2023-04-24T00:38:16;3.30;;;0.40;;
15693;SDS011;7947;48.834;9.132;2023-04-24T00:41:20;0.60;;;0.25;;
15693;SDS011;7947;48.834;9.132;2023-04-24T00:44:23;0.52;;;0.30;;
15693;SDS011;7947;48.834;9.132;2023-04-24T00:47:26;1.10;;;0.65;;
15693;SDS011;7947;48.834;9.132;2023-04-24T00:50:29;0.30;;;0.30;;
15693;SDS011;7947;48.834;9.132;2023-04-24T00:53:32;0.52;;;0.30;;
15693;SDS011;7947;48.834;9.132;2023-04-24T00:56:36;0.65;;;0.35;;
15693;SDS011;7947;48.834;9.132;2023-04-24T00:59:39;0.43;;;0.30;;
15693;SDS011;7947;48.834;9.132;2023-04-24T01:02:42;2.20;;;0.47;;
15693;SDS011;7947;48.834;9.132;2023-04-24T01:05:46;0.55;;;0.50;;
15693;SDS011;7947;48.834;9.132;2023-04-24T01:08:50;0.80;;;0.30;;
15693;SDS011;7947;48.834;9.132;2023-04-24T01:11:54;0.98;;;0.55;;
15693;SDS011;7947;48.834;9.132;2023-04-24T01:14:57;0.30;;;0.30;;
15693;SDS011;7947;48.834;9.132;2023-04-24T01:18:00;1.52;;;0.35;;
15693;SDS011;7947;48.834;9.132;2023-04-24T01:21:03;0.80;;;0.30;;
15693;SDS011;7947;48.834;9.132;2023-04-24T01:24:08;0.40;;;0.40;;
15693;SDS011;7947;48.834;9.132;2023-04-24T01:27:11;0.40;;;0.40;;
15693;SDS011;7947;48.834;9.132;2023-04-24T01:30:14;1.08;;;0.32;;
15693;SDS011;7947;48.834;9.132;2023-04-24T01:33:17;2.90;;;0.40;;
15693;SDS011;7947;48.834;9.132;2023-04-24T01:36:21;0.90;;;0.30;;
15693;SDS011;7947;48.834;9.132;2023-04-24T01:39:28;1.08;;;0.40;;
15693;SDS011;7947;48.834;9.132;2023-04-24T01:42:31;0.82;;;0.20;;
15693;SDS011;7947;48.834;9.132;2023-04-24T01:45:34;0.30;;;0.30;;
15693;SDS011;7947;48.834;9.132;2023-04-24T01:48:37;0.20;;;0.20;;
15693;SDS011;7947;48.834;9.132;2023-04-24T01:51:40;0.63;;;0.40;;
15693;SDS011;7947;48.834;9.132;2023-04-24T01:54:44;1.70;;;0.40;;
15693;SDS011;7947;48.834;9.132;2023-04-24T01:57:47;1.90;;;0.30;;
15693;SDS011;7947;48.834;9.132;2023-04-24T02:00:49;0.40;;;0.40;;
15693;SDS011;7947;48.834;9.132;2023-04-24T02:03:52;1.77;;;0.43;;
15693;SDS011;7947;48.834;9.132;2023-04-24T02:06:55;0.75;;;0.55;;
15693;SDS011;7947;48.834;9.132;2023-04-24T02:09:59;0.75;;;0.40;;
15693;SDS011;7947;48.834;9.132;2023-04-24T02:13:02;0.98;;;0.40;;
15693;SDS011;7947;48.834;9.132;2023-04-24T02:16:06;0.30;;;0.30;;
15693;SDS011;7947;48.834;9.132;2023-04-24T02:19:08;0.75;;;0.50;;
15693;SDS011;7947;48.834;9.132;2023-04-24T02:22:11;1.38;;;0.40;;
15693;SDS011;7947;48.834;9.132;2023-04-24T02:25:16;0.95;;;0.22;;
15693;SDS011;7947;48.834;9.132;2023-04-24T02:28:19;1.20;;;0.35;;
15693;SDS011;7947;48.834;9.132;2023-04-24T02:31:21;0.30;;;0.30;;
15693;SDS011;7947;48.834;9.132;2023-04-24T02:34:24;0.90;;;0.50;;
15693;SDS011;7947;48.834;9.132;2023-04-24T02:37:27;0.88;;;0.45;;
15693;SDS011;7947;48.834;9.132;2023-04-24T02:40:31;0.70;;;0.20;;
15693;SDS011;7947;48.834;9.132;2023-04-24T02:43:34;1.13;;;0.43;;
15693;SDS011;7947;48.834;9.132;2023-04-24T02:46:37;0.95;;;0.30;;
15693;SDS011;7947;48.834;9.132;2023-04-24T02:49:39;0.75;;;0.40;;
15693;SDS011;7947;48.834;9.132;2023-04-24T02:52:43;0.30;;;0.30;;
15693;SDS011;7947;48.834;9.132;2023-04-24T02:55:47;1.20;;;0.50;;
15693;SDS011;7947;48.834;9.132;2023-04-24T02:58:50;1.02;;;0.50;;
15693;SDS011;7947;48.834;9.132;2023-04-24T03:01:53;0.40;;;0.35;;
15693;SDS011;7947;48.834;9.132;2023-04-24T03:04:55;0.50;;;0.40;;
15693;SDS011;7947;48.834;9.132;2023-04-24T03:07:58;0.30;;;0.30;;
15693;SDS011;7947;48.834;9.132;2023-04-24T03:11:03;0.85;;;0.50;;
15693;SDS011;7947;48.834;9.132;2023-04-24T03:14:06;0.47;;;0.40;;
15693;SDS011;7947;48.834;9.132;2023-04-24T03:17:08;1.25;;;0.57;;
15693;SDS011;7947;48.834;9.132;2023-04-24T03:20:11;0.65;;;0.30;;
15693;SDS011;7947;48.834;9.132;2023-04-24T03:23:14;0.85;;;0.32;;
15693;SDS011;7947;48.834;9.132;2023-04-24T03:26:18;0.43;;;0.30;;
15693;SDS011;7947;48.834;9.132;2023-04-24T03:29:21;0.40;;;0.30;;
15693;SDS011;7947;48.834;9.132;2023-04-24T03:32:24;0.35;;;0.30;;
15693;SDS011;7947;48.834;9.132;2023-04-24T03:35:27;0.52;;;0.32;;
15693;SDS011;7947;48.834;9.132;2023-04-24T03:38:30;0.60;;;0.40;;
15693;SDS011;7947;48.834;9.132;2023-04-24T03:41:34;0.75;;;0.40;;
15693;SDS011;7947;48.834;9.132;2023-04-24T03:44:36;1.15;;;0.32;;
15693;SDS011;7947;48.834;9.132;2023-04-24T03:47:39;0.60;;;0.30;;
15693;SDS011;7947;48.834;9.132;2023-04-24T03:50:42;1.17;;;0.40;;
15693;SDS011;7947;48.834;9.132;2023-04-24T03:53:45;1.10;;;0.43;;
15693;SDS011;7947;48.834;9.132;2023-04-24T03:56:49;0.57;;;0.57;;
15693;SDS011;7947;48.834;9.132;2023-04-24T03:59:51;0.70;;;0.60;;
15693;SDS011;7947;48.834;9.132;2023-04-24T04:02:54;0.77;;;0.40;;
15693;SDS011;7947;48.834;9.132;2023-04-24T04:05:57;1.20;;;0.47;;
15693;SDS011;7947;48.834;9.132;2023-04-24T04:09:00;0.68;;;0.40;;
15693;SDS011;7947;48.834;9.132;2023-04-24T04:12:04;0.95;;;0.47;;
15693;SDS011;7947;48.834;9.132;2023-04-24T04:15:07;0.85;;;0.43;;
15693;SDS011;7947;48.834;9.132;2023-04-24T04:18:10;1.35;;;0.75;;
15693;SDS011;7947;48.834;9.132;2023-04-24T04:21:13;1.95;;;0.57;;
15693;SDS011;7947;48.834;9.132;2023-04-24T04:24:16;3.00;;;0.60;;
15693;SDS011;7947;48.834;9.132;2023-04-24T04:27:20;0.75;;;0.60;;
15693;SDS011;7947;48.834;9.132;2023-04-24T04:30:23;0.30;;;0.30;;
15693;SDS011;7947;48.834;9.132;2023-04-24T04:33:27;0.60;;;0.40;;
15693;SDS011;7947;48.834;9.132;2023-04-24T04:36:29;3.45;;;0.80;;
15693;SDS011;7947;48.834;9.132;2023-04-24T04:39:32;0.50;;;0.50;;
15693;SDS011;7947;48.834;9.132;2023-04-24T04:42:36;0.55;;;0.55;;
15693;SDS011;7947;48.834;9.132;2023-04-24T04:45:41;0.50;;;0.45;;
15693;SDS011;7947;48.834;9.132;2023-04-24T04:48:46;0.68;;;0.40;;
15693;SDS011;7947;48.834;9.132;2023-04-24T04:51:49;0.50;;;0.50;;
15693;SDS011;7947;48.834;9.132;2023-04-24T04:54:52;0.73;;;0.57;;
15693;SDS011;7947;48.834;9.132;2023-04-24T04:57:56;0.90;;;0.50;;
15693;SDS011;7947;48.834;9.132;2023-04-24T05:00:58;1.08;;;0.80;;
15693;SDS011;7947;48.834;9.132;2023-04-24T05:04:01;2.05;;;0.60;;
15693;SDS011;7947;48.834;9.132;2023-04-24T05:07:04;0.60;;;0.60;;
15693;SDS011;7947;48.834;9.132;2023-04-24T05:10:08;1.02;;;0.60;;
15693;SDS011;7947;48.834;9.132;2023-04-24T05:13:13;0.50;;;0.50;;
15693;SDS011;7947;48.834;9.132;2023-04-24T05:16:21;0.75;;;0.43;;
15693;SDS011;7947;48.834;9.132;2023-04-24T05:19:23;0.40;;;0.40;;
15693;SDS011;7947;48.834;9.132;2023-04-24T05:22:26;0.50;;;0.50;;
15693;SDS011;7947;48.834;9.132;2023-04-24T05:25:29;2.10;;;0.65;;
15693;SDS011;7947;48.834;9.132;2023-04-24T05:28:34;0.93;;;0.50;;
15693;SDS011;7947;48.834;9.132;2023-04-24T05:31:38;0.60;;;0.30;;
15693;SDS011;7947;48.834;9.132;2023-04-24T05:34:41;1.45;;;1.10;;
15693;SDS011;7947;48.834;9.132;2023-04-24T05:37:44;0.77;;;0.68;;
15693;SDS011;7947;48.834;9.132;2023-04-24T05:40:46;0.95;;;0.70;;
15693;SDS011;7947;48.834;9.132;2023-04-24T05:43:51;0.65;;;0.60;;
15693;SDS011;7947;48.834;9.132;2023-04-24T05:46:53;1.27;;;0.70;;
15693;SDS011;7947;48.834;9.132;2023-04-24T05:49:57;0.63;;;0.55;;
15693;SDS011;7947;48.834;9.132;2023-04-24T05:52:59;0.90;;;0.73;;
15693;SDS011;7947;48.834;9.132;2023-04-24T05:56:03;1.15;;;0.70;;
15693;SDS011;7947;48.834;9.132;2023-04-24T05:59:08;0.80;;;0.57;;
15693;SDS011;7947;48.834;9.132;2023-04-24T06:02:10;0.60;;;0.60;;
15693;SDS011;7947;48.834;9.132;2023-04-24T06:05:13;0.90;;;0.70;;
15693;SDS011;7947;48.834;9.132;2023-04-24T06:08:17;2.83;;;0.70;;
15693;SDS011;7947;48.834;9.132;2023-04-24T06:11:19;0.60;;;0.60;;
15693;SDS011;7947;48.834;9.132;2023-04-24T06:14:23;3.20;;;1.80;;
15693;SDS011;7947;48.834;9.132;2023-04-24T06:17:26;1.45;;;0.80;;
15693;SDS011;7947;48.834;9.132;2023-04-24T06:20:29;2.22;;;0.73;;
15693;SDS011;7947;48.834;9.132;2023-04-24T06:23:32;1.13;;;1.00;;
15693;SDS011;7947;48.834;9.132;2023-04-24T06:26:35;1.60;;;0.80;;
15693;SDS011;7947;48.834;9.132;2023-04-24T06:29:39;1.15;;;0.82;;
15693;SDS011;7947;48.834;9.132;2023-04-24T06:32:42;1.85;;;0.80;;
15693;SDS011;7947;48.834;9.132;2023-04-24T06:35:45;1.52;;;1.10;;
15693;SDS011;7947;48.834;9.132;2023-04-24T06:38:47;2.67;;;1.00;;
15693;SDS011;7947;48.834;9.132;2023-04-24T06:41:50;1.58;;;1.00;;
15693;SDS011;7947;48.834;9.132;2023-04-24T06:44:54;1.30;;;0.85;;
15693;SDS011;7947;48.834;9.132;2023-04-24T06:47:57;0.65;;;0.65;;
15693;SDS011;7947;48.834;9.132;2023-04-24T06:51:00;1.15;;;0.70;;
15693;SDS011;7947;48.834;9.132;2023-04-24T06:54:03;1.10;;;0.82;;
15693;SDS011;7947;48.834;9.132;2023-04-24T06:57:06;0.90;;;0.80;;
15693;SDS011;7947;48.834;9.132;2023-04-24T07:00:11;2.40;;;1.33;;
15693;SDS011;7947;48.834;9.132;2023-04-24T07:03:15;1.05;;;0.85;;
15693;SDS011;7947;48.834;9.132;2023-04-24T07:06:17;0.82;;;0.80;;
15693;SDS011;7947;48.834;9.132;2023-04-24T07:09:23;1.10;;;0.85;;
15693;SDS011;7947;48.834;9.132;2023-04-24T07:12:27;1.00;;;0.80;;
15693;SDS011;7947;48.834;9.132;2023-04-24T07:15:32;1.10;;;1.00;;
15693;SDS011;7947;48.834;9.132;2023-04-24T07:18:35;0.75;;;0.70;;
15693;SDS011;7947;48.834;9.132;2023-04-24T07:21:38;0.80;;;0.80;;
15693;SDS011;7947;48.834;9.132;2023-04-24T07:24:41;1.17;;;1.00;;
15693;SDS011;7947;48.834;9.132;2023-04-24T07:27:44;1.00;;;0.70;;
15693;SDS011;7947;48.834;9.132;2023-04-24T07:30:48;1.08;;;0.80;;
15693;SDS011;7947;48.834;9.132;2023-04-24T07:33:51;1.42;;;0.75;;
15693;SDS011;7947;48.834;9.132;2023-04-24T07:36:53;2.08;;;0.60;;
15693;SDS011;7947;48.834;9.132;2023-04-24T07:39:56;2.08;;;0.75;;
15693;SDS011;7947;48.834;9.132;2023-04-24T07:42:59;0.82;;;0.82;;
15693;SDS011;7947;48.834;9.132;2023-04-24T07:46:03;2.22;;;0.80;;
15693;SDS011;7947;48.834;9.132;2023-04-24T07:49:09;2.70;;;0.90;;
15693;SDS011;7947;48.834;9.132;2023-04-24T07:52:14;3.72;;;0.88;;
15693;SDS011;7947;48.834;9.132;2023-04-24T07:55:17;1.42;;;0.82;;
15693;SDS011;7947;48.834;9.132;2023-04-24T07:58:24;1.05;;;0.90;;
15693;SDS011;7947;48.834;9.132;2023-04-24T08:01:28;1.80;;;0.70;;
15693;SDS011;7947;48.834;9.132;2023-04-24T08:04:31;0.82;;;0.70;;
15693;SDS011;7947;48.834;9.132;2023-04-24T08:07:34;0.73;;;0.68;;
15693;SDS011;7947;48.834;9.132;2023-04-24T08:10:37;1.25;;;0.80;;
15693;SDS011;7947;48.834;9.132;2023-04-24T08:13:40;1.88;;;0.50;;
15693;SDS011;7947;48.834;9.132;2023-04-24T08:16:44;1.35;;;0.88;;
15693;SDS011;7947;48.834;9.132;2023-04-24T08:19:47;1.42;;;0.95;;
15693;SDS011;7947;48.834;9.132;2023-04-24T08:22:50;5.05;;;1.02;;
15693;SDS011;7947;48.834;9.132;2023-04-24T08:25:53;1.02;;;0.77;;
15693;SDS011;7947;48.834;9.132;2023-04-24T08:28:56;1.15;;;0.70;;
15693;SDS011;7947;48.834;9.132;2023-04-24T08:32:00;0.85;;;0.63;;
15693;SDS011;7947;48.834;9.132;2023-04-24T08:35:03;1.67;;;1.10;;
15693;SDS011;7947;48.834;9.132;2023-04-24T08:38:06;3.20;;;0.88;;
15693;SDS011;7947;48.834;9.132;2023-04-24T08:41:09;1.67;;;1.15;;
15693;SDS011;7947;48.834;9.132;2023-04-24T08:44:12;1.30;;;0.80;;
15693;SDS011;7947;48.834;9.132;2023-04-24T08:47:18;3.08;;;0.85;;
15693;SDS011;7947;48.834;9.132;2023-04-24T08:50:22;2.13;;;1.00;;
15693;SDS011;7947;48.834;9.132;2023-04-24T08:53:25;2.33;;;0.70;;
15693;SDS011;7947;48.834;9.132;2023-04-24T08:56:28;1.92;;;0.80;;
15693;SDS011;7947;48.834;9.132;2023-04-24T08:59:33;3.92;;;0.82;;
15693;SDS011;7947;48.834;9.132;2023-04-24T09:02:40;1.95;;;0.93;;
15693;SDS011;7947;48.834;9.132;2023-04-24T09:05:46;2.53;;;0.70;;
15693;SDS011;7947;48.834;9.132;2023-04-24T09:08:50;1.95;;;0.60;;
15693;SDS011;7947;48.834;9.132;2023-04-24T09:11:57;0.93;;;0.80;;
15693;SDS011;7947;48.834;9.132;2023-04-24T09:15:00;4.75;;;2.45;;
15693;SDS011;7947;48.834;9.132;2023-04-24T09:18:06;0.60;;;0.60;;
15693;SDS011;7947;48.834;9.132;2023-04-24T09:21:09;1.88;;;0.85;;
15693;SDS011;7947;48.834;9.132;2023-04-24T09:24:14;1.75;;;0.65;;
15693;SDS011;7947;48.834;9.132;2023-04-24T09:27:19;1.08;;;0.80;;
15693;SDS011;7947;48.834;9.132;2023-04-24T09:30:26;0.98;;;0.82;;
15693;SDS011;7947;48.834;9.132;2023-04-24T09:33:30;0.70;;;0.70;;
15693;SDS011;7947;48.834;9.132;2023-04-24T09:36:33;1.60;;;0.70;;
15693;SDS011;7947;48.834;9.132;2023-04-24T09:39:38;0.80;;;0.70;;
15693;SDS011;7947;48.834;9.132;2023-04-24T09:42:45;1.08;;;0.82;;
15693;SDS011;7947;48.834;9.132;2023-04-24T09:45:55;2.00;;;0.80;;
15693;SDS011;7947;48.834;9.132;2023-04-24T09:49:05;0.70;;;0.55;;
15693;SDS011;7947;48.834;9.132;2023-04-24T09:52:10;1.23;;;0.70;;
15693;SDS011;7947;48.834;9.132;2023-04-24T09:55:16;3.50;;;0.77;;
15693;SDS011;7947;48.834;9.132;2023-04-24T09:58:24;0.82;;;0.60;;
15693;SDS011;7947;48.834;9.132;2023-04-24T10:01:29;0.65;;;0.60;;
15693;SDS011;7947;48.834;9.132;2023-04-24T10:04:35;0.77;;;0.68;;
15693;SDS011;7947;48.834;9.132;2023-04-24T10:07:38;3.33;;;0.73;;
15693;SDS011;7947;48.834;9.132;2023-04-24T10:10:42;1.08;;;0.70;;
15693;SDS011;7947;48.834;9.132;2023-04-24T10:13:47;2.08;;;0.98;;
15693;SDS011;7947;48.834;9.132;2023-04-24T10:16:51;2.13;;;0.70;;
15693;SDS011;7947;48.834;9.132;2023-04-24T10:19:59;1.20;;;0.85;;
15693;SDS011;7947;48.834;9.132;2023-04-24T10:23:03;0.85;;;0.70;;
15693;SDS011;7947;48.834;9.132;2023-04-24T10:26:08;0.93;;;0.70;;
15693;SDS011;7947;48.834;9.132;2023-04-24T10:29:12;0.60;;;0.60;;
15693;SDS011;7947;48.834;9.132;2023-04-24T10:32:16;0.95;;;0.70;;
15693;SDS011;7947;48.834;9.132;2023-04-24T10:35:22;0.90;;;0.80;;
15693;SDS011;7947;48.834;9.132;2023-04-24T10:38:28;0.85;;;0.80;;
15693;SDS011;7947;48.834;9.132;2023-04-24T10:41:33;1.00;;;0.90;;
15693;SDS011;7947;48.834;9.132;2023-04-24T10:44:36;0.88;;;0.70;;
15693;SDS011;7947;48.834;9.132;2023-04-24T10:47:39;0.88;;;0.70;;
15693;SDS011;7947;48.834;9.132;2023-04-24T10:50:46;0.85;;;0.73;;
15693;SDS011;7947;48.834;9.132;2023-04-24T10:53:49;1.10;;;1.00;;
15693;SDS011;7947;48.834;9.132;2023-04-24T10:56:53;2.00;;;0.90;;
15693;SDS011;7947;48.834;9.132;2023-04-24T11:00:18;1.65;;;0.90;;
15693;SDS011;7947;48.834;9.132;2023-04-24T11:03:24;0.90;;;0.80;;
15693;SDS011;7947;48.834;9.132;2023-04-24T11:06:32;1.40;;;0.50;;
15693;SDS011;7947;48.834;9.132;2023-04-24T11:09:37;0.50;;;0.50;;
15693;SDS011;7947;48.834;9.132;2023-04-24T11:12:41;0.77;;;0.57;;
15693;SDS011;7947;48.834;9.132;2023-04-24T11:15:46;0.65;;;0.57;;
15693;SDS011;7947;48.834;9.132;2023-04-24T11:19:21;1.20;;;0.73;;
15693;SDS011;7947;48.834;9.132;2023-04-24T11:22:27;0.70;;;0.70;;
15693;SDS011;7947;48.834;9.132;2023-04-24T11:25:35;1.08;;;0.90;;
15693;SDS011;7947;48.834;9.132;2023-04-24T11:28:43;0.95;;;0.77;;
15693;SDS011;7947;48.834;9.132;2023-04-24T11:31:47;1.08;;;0.88;;
15693;SDS011;7947;48.834;9.132;2023-04-24T11:34:53;1.52;;;0.88;;
15693;SDS011;7947;48.834;9.132;2023-04-24T11:37:58;0.93;;;0.77;;
15693;SDS011;7947;48.834;9.132;2023-04-24T11:41:24;1.02;;;0.80;;
15693;SDS011;7947;48.834;9.132;2023-04-24T11:44:27;1.00;;;0.70;;
15693;SDS011;7947;48.834;9.132;2023-04-24T11:47:33;1.23;;;0.70;;
15693;SDS011;7947;48.834;9.132;2023-04-24T11:50:36;0.65;;;0.63;;
15693;SDS011;7947;48.834;9.132;2023-04-24T11:53:40;1.45;;;0.75;;
15693;SDS011;7947;48.834;9.132;2023-04-24T11:56:45;1.23;;;0.80;;
15693;SDS011;7947;48.834;9.132;2023-04-24T11:59:49;1.00;;;0.70;;
15693;SDS011;7947;48.834;9.132;2023-04-24T12:03:02;0.75;;;0.65;;
15693;SDS011;7947;48.834;9.132;2023-04-24T12:06:08;2.78;;;0.82;;
15693;SDS011;7947;48.834;9.132;2023-04-24T12:09:14;0.88;;;0.73;;
15693;SDS011;7947;48.834;9.132;2023-04-24T12:12:19;0.70;;;0.70;;
15693;SDS011;7947;48.834;9.132;2023-04-24T12:15:21;1.08;;;0.80;;
15693;SDS011;7947;48.834;9.132;2023-04-24T12:18:25;2.17;;;0.60;;
15693;SDS011;7947;48.834;9.132;2023-04-24T12:21:28;0.80;;;0.65;;
15693;SDS011;7947;48.834;9.132;2023-04-24T12:24:34;0.95;;;0.80;;
15693;SDS011;7947;48.834;9.132;2023-04-24T12:27:37;0.70;;;0.70;;
15693;SDS011;7947;48.834;9.132;2023-04-24T12:30:41;1.27;;;0.80;;
15693;SDS011;7947;48.834;9.132;2023-04-24T12:33:46;0.55;;;0.50;;
15693;SDS011;7947;48.834;9.132;2023-04-24T12:36:49;0.63;;;0.63;;
15693;SDS011;7947;48.834;9.132;2023-04-24T12:39:59;1.33;;;0.70;;
15693;SDS011;7947;48.834;9.132;2023-04-24T12:43:12;0.70;;;0.50;;
15693;SDS011;7947;48.834;9.132;2023-04-24T12:46:16;1.33;;;0.90;;
15693;SDS011;7947;48.834;9.132;2023-04-24T12:49:22;1.25;;;1.15;;
15693;SDS011;7947;48.834;9.132;2023-04-24T12:52:25;0.88;;;0.73;;
15693;SDS011;7947;48.834;9.132;2023-04-24T12:55:30;0.80;;;0.80;;
15693;SDS011;7947;48.834;9.132;2023-04-24T12:58:33;0.95;;;0.57;;
15693;SDS011;7947;48.834;9.132;2023-04-24T13:01:36;0.82;;;0.50;;
15693;SDS011;7947;48.834;9.132;2023-04-24T13:04:39;0.73;;;0.60;;
15693;SDS011;7947;48.834;9.132;2023-04-24T13:07:42;0.80;;;0.60;;
15693;SDS011;7947;48.834;9.132;2023-04-24T13:10:46;1.42;;;0.68;;
15693;SDS011;7947;48.834;9.132;2023-04-24T13:13:49;1.23;;;0.80;;
15693;SDS011;7947;48.834;9.132;2023-04-24T13:16:55;0.90;;;0.70;;
15693;SDS011;7947;48.834;9.132;2023-04-24T13:19:58;1.08;;;0.90;;
15693;SDS011;7947;48.834;9.132;2023-04-24T13:23:01;1.27;;;0.82;;
15693;SDS011;7947;48.834;9.132;2023-04-24T13:26:06;1.20;;;0.90;;
15693;SDS011;7947;48.834;9.132;2023-04-24T13:29:08;2.28;;;1.05;;
15693;SDS011;7947;48.834;9.132;2023-04-24T13:32:12;1.60;;;0.90;;
15693;SDS011;7947;48.834;9.132;2023-04-24T13:35:15;1.30;;;0.98;;
15693;SDS011;7947;48.834;9.132;2023-04-24T13:38:18;1.58;;;1.10;;
15693;SDS011;7947;48.834;9.132;2023-04-24T13:41:24;1.75;;;0.98;;
15693;SDS011;7947;48.834;9.132;2023-04-24T13:44:27;1.27;;;1.02;;
15693;SDS011;7947;48.834;9.132;2023-04-24T13:47:30;1.25;;;1.08;;
15693;SDS011;7947;48.834;9.132;2023-04-24T13:50:33;2.05;;;0.70;;
15693;SDS011;7947;48.834;9.132;2023-04-24T13:53:36;1.48;;;0.70;;
15693;SDS011;7947;48.834;9.132;2023-04-24T13:56:41;0.70;;;0.70;;
15693;SDS011;7947;48.834;9.132;2023-04-24T13:59:44;1.48;;;0.65;;
15693;SDS011;7947;48.834;9.132;2023-04-24T14:02:47;1.40;;;1.30;;
15693;SDS011;7947;48.834;9.132;2023-04-24T14:05:50;1.95;;;1.00;;
15693;SDS011;7947;48.834;9.132;2023-04-24T14:08:53;2.10;;;0.90;;
15693;SDS011;7947;48.834;9.132;2023-04-24T14:11:58;1.10;;;0.80;;
15693;SDS011;7947;48.834;9.132;2023-04-24T14:15:02;1.63;;;0.70;;
15693;SDS011;7947;48.834;9.132;2023-04-24T14:18:06;1.05;;;0.85;;
15693;SDS011;7947;48.834;9.132;2023-04-24T14:21:09;1.95;;;0.70;;
15693;SDS011;7947;48.834;9.132;2023-04-24T14:24:12;1.42;;;0.90;;
15693;SDS011;7947;48.834;9.132;2023-04-24T14:27:16;1.60;;;0.82;;
15693;SDS011;7947;48.834;9.132;2023-04-24T14:30:19;1.60;;;0.93;;
15693;SDS011;7947;48.834;9.132;2023-04-24T14:33:22;2.00;;;1.23;;
15693;SDS011;7947;48.834;9.132;2023-04-24T14:36:25;1.58;;;0.82;;
15693;SDS011;7947;48.834;9.132;2023-04-24T14:39:28;1.35;;;1.17;;
15693;SDS011;7947;48.834;9.132;2023-04-24T14:42:32;0.90;;;0.80;;
15693;SDS011;7947;48.834;9.132;2023-04-24T14:45:36;1.05;;;0.82;;
15693;SDS011;7947;48.834;9.132;2023-04-24T14:48:39;1.20;;;0.95;;
15693;SDS011;7947;48.834;9.132;2023-04-24T14:51:42;1.40;;;0.95;;
15693;SDS011;7947;48.834;9.132;2023-04-24T14:54:45;1.98;;;0.80;;
15693;SDS011;7947;48.834;9.132;2023-04-24T14:57:49;1.17;;;0.98;;
15693;SDS011;7947;48.834;9.132;2023-04-24T15:00:52;1.15;;;0.98;;
15693;SDS011;7947;48.834;9.132;2023-04-24T15:03:55;1.35;;;1.00;;
15693;SDS011;7947;48.834;9.132;2023-04-24T15:06:59;2.47;;;1.00;;
15693;SDS011;7947;48.834;9.132;2023-04-24T15:10:02;1.52;;;1.08;;
15693;SDS011;7947;48.834;9.132;2023-04-24T15:13:07;1.80;;;1.00;;
15693;SDS011;7947;48.834;9.132;2023-04-24T15:16:10;1.58;;;0.90;;
15693;SDS011;7947;48.834;9.132;2023-04-24T15:19:13;1.23;;;1.00;;
15693;SDS011;7947;48.834;9.132;2023-04-24T15:22:16;1.48;;;0.98;;
15693;SDS011;7947;48.834;9.132;2023-04-24T15:25:19;1.10;;;0.85;;
15693;SDS011;7947;48.834;9.132;2023-04-24T15:28:23;0.85;;;0.80;;
15693;SDS011;7947;48.834;9.132;2023-04-24T15:31:27;2.08;;;1.08;;
15693;SDS011;7947;48.834;9.132;2023-04-24T15:34:30;2.08;;;1.10;;
15693;SDS011;7947;48.834;9.132;2023-04-24T15:37:33;2.50;;;1.05;;
15693;SDS011;7947;48.834;9.132;2023-04-24T15:40:36;1.23;;;1.10;;
15693;SDS011;7947;48.834;9.132;2023-04-24T15:43:40;1.63;;;1.23;;
15693;SDS011;7947;48.834;9.132;2023-04-24T15:46:44;2.25;;;1.20;;
15693;SDS011;7947;48.834;9.132;2023-04-24T15:49:47;1.67;;;1.20;;
15693;SDS011;7947;48.834;9.132;2023-04-24T15:52:49;1.33;;;1.02;;
15693;SDS011;7947;48.834;9.132;2023-04-24T15:55:52;1.30;;;1.10;;
15693;SDS011;7947;48.834;9.132;2023-04-24T15:58:58;2.80;;;1.20;;
15693;SDS011;7947;48.834;9.132;2023-04-24T16:02:01;1.13;;;0.80;;
15693;SDS011;7947;48.834;9.132;2023-04-24T16:05:05;1.10;;;1.00;;
15693;SDS011;7947;48.834;9.132;2023-04-24T16:08:09;2.63;;;0.90;;
15693;SDS011;7947;48.834;9.132;2023-04-24T16:11:11;2.65;;;1.00;;
15693;SDS011;7947;48.834;9.132;2023-04-24T16:14:16;1.13;;;0.90;;
15693;SDS011;7947;48.834;9.132;2023-04-24T16:17:18;1.50;;;1.02;;
15693;SDS011;7947;48.834;9.132;2023-04-24T16:20:21;0.90;;;0.80;;
15693;SDS011;7947;48.834;9.132;2023-04-24T16:23:24;1.80;;;1.10;;
15693;SDS011;7947;48.834;9.132;2023-04-24T16:26:27;1.30;;;1.10;;
15693;SDS011;7947;48.834;9.132;2023-04-24T16:29:31;0.77;;;0.70;;
15693;SDS011;7947;48.834;9.132;2023-04-24T16:32:34;1.00;;;0.80;;
15693;SDS011;7947;48.834;9.132;2023-04-24T16:35:37;1.20;;;0.98;;
15693;SDS011;7947;48.834;9.132;2023-04-24T16:38:40;1.77;;;1.50;;
15693;SDS011;7947;48.834;9.132;2023-04-24T16:41:43;1.55;;;0.70;;
15693;SDS011;7947;48.834;9.132;2023-04-24T16:44:48;1.30;;;1.02;;
15693;SDS011;7947;48.834;9.132;2023-04-24T16:47:52;2.15;;;1.00;;
15693;SDS011;7947;48.834;9.132;2023-04-24T16:51:05;1.05;;;0.95;;
15693;SDS011;7947;48.834;9.132;2023-04-24T16:54:09;1.17;;;0.70;;
15693;SDS011;7947;48.834;9.132;2023-04-24T16:57:12;1.38;;;0.65;;
15693;SDS011;7947;48.834;9.132;2023-04-24T17:00:18;0.93;;;0.80;;
15693;SDS011;7947;48.834;9.132;2023-04-24T17:03:21;1.20;;;0.60;;
15693;SDS011;7947;48.834;9.132;2023-04-24T17:06:24;1.27;;;0.73;;
15693;SDS011;7947;48.834;9.132;2023-04-24T17:09:27;1.08;;;0.70;;
15693;SDS011;7947;48.834;9.132;2023-04-24T17:12:29;1.30;;;0.70;;
15693;SDS011;7947;48.834;9.132;2023-04-24T17:15:34;0.93;;;0.80;;
15693;SDS011;7947;48.834;9.132;2023-04-24T17:18:37;2.03;;;0.80;;
15693;SDS011;7947;48.834;9.132;2023-04-24T17:21:39;0.60;;;0.60;;
15693;SDS011;7947;48.834;9.132;2023-04-24T17:24:42;1.55;;;0.70;;
15693;SDS011;7947;48.834;9.132;2023-04-24T17:27:45;1.75;;;0.90;;
15693;SDS011;7947;48.834;9.132;2023-04-24T17:30:49;1.23;;;0.80;;
15693;SDS011;7947;48.834;9.132;2023-04-24T17:33:54;2.63;;;1.02;;
15693;SDS011;7947;48.834;9.132;2023-04-24T17:36:57;1.63;;;0.80;;
15693;SDS011;7947;48.834;9.132;2023-04-24T17:40:00;1.20;;;1.02;;
15693;SDS011;7947;48.834;9.132;2023-04-24T17:43:04;1.65;;;1.30;;
15693;SDS011;7947;48.834;9.132;2023-04-24T17:46:08;1.60;;;1.23;;
15693;SDS011;7947;48.834;9.132;2023-04-24T17:49:11;1.85;;;1.40;;
15693;SDS011;7947;48.834;9.132;2023-04-24T17:52:14;1.33;;;1.17;;
15693;SDS011;7947;48.834;9.132;2023-04-24T17:55:18;1.15;;;1.05;;
15693;SDS011;7947;48.834;9.132;2023-04-24T17:58:21;1.23;;;1.10;;
15693;SDS011;7947;48.834;9.132;2023-04-24T18:01:25;1.70;;;1.00;;
15693;SDS011;7947;48.834;9.132;2023-04-24T18:04:29;1.35;;;1.10;;
15693;SDS011;7947;48.834;9.132;2023-04-24T18:07:32;1.20;;;0.95;;
15693;SDS011;7947;48.834;9.132;2023-04-24T18:10:35;0.98;;;0.80;;
15693;SDS011;7947;48.834;9.132;2023-04-24T18:13:38;1.42;;;1.00;;
15693;SDS011;7947;48.834;9.132;2023-04-24T18:16:43;2.03;;;1.20;;
15693;SDS011;7947;48.834;9.132;2023-04-24T18:19:46;1.10;;;1.00;;
15693;SDS011;7947;48.834;9.132;2023-04-24T18:22:49;1.20;;;1.05;;
15693;SDS011;7947;48.834;9.132;2023-04-24T18:25:52;1.20;;;1.10;;
15693;SDS011;7947;48.834;9.132;2023-04-24T18:28:55;1.23;;;0.98;;
15693;SDS011;7947;48.834;9.132;2023-04-24T18:31:59;2.42;;;1.25;;
15693;SDS011;7947;48.834;9.132;2023-04-24T18:35:05;0.90;;;0.90;;
15693;SDS011;7947;48.834;9.132;2023-04-24T18:38:08;1.67;;;1.00;;
15693;SDS011;7947;48.834;9.132;2023-04-24T18:41:11;1.10;;;1.00;;
15693;SDS011;7947;48.834;9.132;2023-04-24T18:44:14;2.13;;;1.60;;